Time;durP1;ratioP1;P1;durP2;ratioP2;P2;SDS_P1;SDS_P2;PMS_P1;PMS_P2;Temp;Humidity;BMP_temperature;BMP_pressure;BME280_temperature;BME280_humidity;BME280_pressure;Samples;Min_cycle;Max_cycle;Signal;HPM_P1;HPM_P2
2022/03/31 00:01:17;;;;;;;;;29.60;24.00;;;;;14.17;51.78;97091.16;6289088;27;98040;-68
2022/03/31 00:04:20;;;;;;;;;23.80;21.80;;;;;14.21;51.77;97086.81;6286922;27;96997;-68
2022/03/31 00:07:23;;;;;;;;;29.50;26.00;;;;;14.22;51.50;97099.22;6268635;27;97432;-68
2022/03/31 00:10:28;;;;;;;;;26.40;24.00;;;;;14.21;51.37;97099.53;6268532;27;96703;-68
2022/03/31 00:13:32;;;;;;;;;27.50;22.50;;;;;14.17;51.54;97104.69;6287559;27;96801;-68
2022/03/31 00:16:36;;;;;;;;;25.60;23.40;;;;;14.03;51.58;97084.00;6288732;27;97650;-68
2022/03/31 00:19:40;;;;;;;;;27.40;23.00;;;;;14.02;51.52;97083.22;6275314;27;98377;-68
2022/03/31 00:22:43;;;;;;;;;27.00;23.40;;;;;13.86;51.91;97087.16;6291254;27;97282;-68
2022/03/31 00:25:47;;;;;;;;;27.75;23.00;;;;;13.92;51.55;97101.47;6293353;27;96488;-69
2022/03/31 00:28:50;;;;;;;;;27.20;23.80;;;;;13.93;51.49;97114.72;6292453;27;97432;-68
2022/03/31 00:31:55;;;;;;;;;26.00;22.00;;;;;13.94;51.73;97113.63;6291844;27;97434;-68
2022/03/31 00:34:58;;;;;;;;;26.50;24.00;;;;;13.96;51.74;97110.63;6292461;27;96302;-68
2022/03/31 00:38:01;;;;;;;;;21.00;18.00;;;;;13.92;51.49;97088.75;6292279;27;98112;-68
2022/03/31 00:41:04;;;;;;;;;19.00;16.20;;;;;13.81;51.49;97069.06;6273556;27;97081;-68
2022/03/31 00:44:08;;;;;;;;;22.00;17.00;;;;;13.79;51.55;97062.31;6290124;27;97632;-68
2022/03/31 00:47:13;;;;;;;;;19.40;17.00;;;;;13.72;51.34;97070.78;6291007;27;96332;-68
2022/03/31 00:50:17;;;;;;;;;19.60;17.60;;;;;13.60;51.10;97078.47;6291824;27;98183;-68
2022/03/31 00:53:20;;;;;;;;;22.40;19.60;;;;;13.59;51.38;97084.16;6273873;27;97984;-68
2022/03/31 00:56:33;;;;;;;;;16.67;16.67;;;;;13.35;51.62;97094.94;6272255;27;97038;-68
2022/03/31 00:59:37;;;;;;;;;19.50;16.50;;;;;13.24;51.67;97102.31;6291782;27;96772;-68
2022/03/31 01:02:43;;;;;;;;;22.00;17.00;;;;;13.29;51.86;97099.56;6293383;27;96762;-68
2022/03/31 01:05:46;;;;;;;;;19.00;17.00;;;;;13.23;51.70;97098.00;6265191;27;96598;-68
2022/03/31 01:08:50;;;;;;;;;18.60;16.00;;;;;13.26;51.38;97088.50;6289786;27;97231;-68
2022/03/31 01:11:53;;;;;;;;;20.00;18.00;;;;;13.23;51.08;97098.00;6273083;27;96482;-68
2022/03/31 01:15:11;;;;;;;;;20.00;16.00;;;;;13.06;50.76;97107.56;6272503;27;98600;-68
2022/03/31 01:18:16;;;;;;;;;19.00;17.60;;;;;13.08;50.39;97108.91;6291421;27;97428;-68
2022/03/31 01:21:19;;;;;;;;;20.00;19.00;;;;;12.99;50.56;97099.78;6289794;27;97401;-68
2022/03/31 01:24:24;;;;;;;;;22.60;21.60;;;;;12.97;50.55;97104.63;6272746;27;97842;-68
2022/03/31 01:27:28;;;;;;;;;18.00;16.00;;;;;12.87;50.63;97102.81;6270769;27;99961;-68
2022/03/31 01:30:31;;;;;;;;;19.40;18.00;;;;;12.86;50.68;97105.78;6289891;27;98058;-67
2022/03/31 01:33:35;;;;;;;;;22.25;20.25;;;;;12.90;50.41;97123.09;6289692;27;96848;-67
2022/03/31 01:36:39;;;;;;;;;21.40;19.40;;;;;12.94;50.01;97122.25;6268921;27;96819;-68
2022/03/31 01:39:43;;;;;;;;;22.50;20.00;;;;;12.88;49.67;97111.72;6288707;27;97294;-67
2022/03/31 01:42:47;;;;;;;;;21.75;19.50;;;;;12.86;49.47;97119.31;6269811;27;97437;-67
2022/03/31 01:45:52;;;;;;;;;22.00;20.00;;;;;12.69;49.63;97118.88;6253360;27;98370;-67
2022/03/31 01:48:55;;;;;;;;;23.00;22.00;;;;;12.62;49.98;97119.16;6272291;27;98523;-68
2022/03/31 01:51:59;;;;;;;;;23.00;22.00;;;;;12.63;49.89;97111.88;6290229;27;97526;-69
2022/03/31 01:55:07;;;;;;;;;23.00;21.00;;;;;12.34;50.27;97112.53;6272540;27;98718;-68
2022/03/31 01:58:10;;;;;;;;;19.20;18.80;;;;;12.24;50.60;97106.34;6272624;27;97555;-68
2022/03/31 02:01:14;;;;;;;;;23.00;19.40;;;;;12.14;50.32;97112.59;6273139;27;98084;-68
2022/03/31 02:04:18;;;;;;;;;20.00;19.00;;;;;12.18;50.24;97112.84;6290500;27;96446;-68
2022/03/31 02:07:21;;;;;;;;;20.80;19.80;;;;;12.14;50.58;97113.41;6271840;27;96309;-68
2022/03/31 02:10:26;;;;;;;;;21.80;20.00;;;;;12.11;50.55;97113.16;6291087;27;97139;-68
2022/03/31 02:13:29;;;;;;;;;17.20;17.20;;;;;12.13;50.61;97119.88;6290658;27;96469;-68
2022/03/31 02:16:32;;;;;;;;;21.00;18.00;;;;;12.18;50.63;97123.66;6270739;27;97024;-68
2022/03/31 02:19:38;;;;;;;;;21.00;18.00;;;;;12.14;50.48;97118.81;6255815;27;97086;-68
2022/03/31 02:22:41;;;;;;;;;23.00;21.60;;;;;12.15;50.86;97123.13;6272027;27;100189;-68
2022/03/31 02:25:46;;;;;;;;;23.40;20.00;;;;;12.09;50.95;97118.81;6252322;27;98444;-68
2022/03/31 02:28:50;;;;;;;;;17.00;15.00;;;;;12.10;50.81;97123.16;6270853;27;97519;-68
2022/03/31 02:31:53;;;;;;;;;18.00;16.00;;;;;11.88;51.11;97106.44;6254718;27;98426;-68
2022/03/31 02:34:57;;;;;;;;;18.00;16.60;;;;;12.04;51.08;97121.53;6270882;27;97011;-68
2022/03/31 02:38:00;;;;;;;;;17.40;15.80;;;;;12.06;51.12;97119.38;6270873;27;97188;-68
2022/03/31 02:41:06;;;;;;;;;17.40;16.40;;;;;12.13;50.50;97106.38;6289554;27;96386;-68
2022/03/31 02:44:09;;;;;;;;;17.75;15.75;;;;;12.07;50.73;97104.75;6272237;27;97014;-67
2022/03/31 02:47:13;;;;;;;;;16.00;14.50;;;;;12.06;50.54;97105.88;6270912;27;96628;-67
2022/03/31 02:50:18;;;;;;;;;16.80;15.20;;;;;12.03;50.65;97109.09;6271690;27;97011;-67
2022/03/31 02:56:43;;;;;;;;;12.20;12.20;;;;;11.99;50.56;97097.25;6291009;27;96598;-67
2022/03/31 02:59:46;;;;;;;;;16.00;14.60;;;;;11.99;50.79;97104.53;6254555;27;98729;-68
2022/03/31 03:02:50;;;;;;;;;15.00;14.50;;;;;12.08;50.65;97119.09;6269694;27;96726;-68
2022/03/31 03:05:53;;;;;;;;;14.00;13.00;;;;;12.05;50.44;97123.16;6291024;27;97439;-68
2022/03/31 03:08:56;;;;;;;;;13.00;12.40;;;;;12.02;50.43;97131.00;6270424;27;96576;-67
2022/03/31 03:12:01;;;;;;;;;14.00;13.00;;;;;12.03;50.17;97119.91;6288429;27;97478;-67
2022/03/31 03:15:05;;;;;;;;;14.40;13.40;;;;;12.01;50.43;97114.00;6271677;27;96913;-67
2022/03/31 03:18:10;;;;;;;;;14.25;14.00;;;;;12.05;50.59;97125.03;6261515;27;96776;-67
2022/03/31 03:21:14;;;;;;;;;12.60;12.40;;;;;12.02;50.64;97125.59;6269222;27;97576;-68
2022/03/31 03:24:18;;;;;;;;;16.00;13.40;;;;;12.00;50.58;97122.34;6269298;27;96707;-67
2022/03/31 03:27:23;;;;;;;;;12.60;11.60;;;;;12.05;50.59;97123.16;6288504;27;97400;-67
2022/03/31 03:30:26;;;;;;;;;13.00;12.00;;;;;12.09;50.50;97126.09;6269229;27;96683;-67
2022/03/31 03:33:30;;;;;;;;;13.00;12.00;;;;;12.14;50.24;97121.50;6290056;27;97539;-67
2022/03/31 03:36:33;;;;;;;;;13.20;11.20;;;;;12.09;50.38;97126.09;6252849;27;97834;-68
2022/03/31 03:39:36;;;;;;;;;12.00;11.00;;;;;12.13;50.40;97133.38;6289921;27;96401;-67
2022/03/31 03:42:41;;;;;;;;;13.40;12.00;;;;;12.14;50.21;97128.81;6268771;27;98025;-67
2022/03/31 03:45:44;;;;;;;;;11.60;10.40;;;;;12.10;50.24;97133.94;6288672;27;96922;-68
2022/03/31 03:48:48;;;;;;;;;12.00;12.00;;;;;12.08;50.16;97130.69;6288142;27;96838;-68
2022/03/31 03:51:51;;;;;;;;;11.20;10.20;;;;;12.08;50.31;97129.88;6292567;27;96817;-67
2022/03/31 03:55:01;;;;;;;;;12.50;11.00;;;;;11.99;50.29;97121.53;6271845;27;96468;-68
2022/03/31 03:58:06;;;;;;;;;11.00;10.00;;;;;12.03;50.42;97129.91;6270283;27;96406;-66
2022/03/31 04:01:10;;;;;;;;;11.00;10.00;;;;;12.12;50.34;97126.34;6274096;27;97341;-67
2022/03/31 04:04:13;;;;;;;;;12.00;12.00;;;;;12.16;50.05;97126.66;6295843;27;96314;-68
2022/03/31 04:07:17;;;;;;;;;10.25;10.00;;;;;12.12;49.93;97130.94;6278743;27;96510;-68
2022/03/31 04:10:20;;;;;;;;;10.20;10.00;;;;;12.10;50.12;97131.25;6294821;27;97399;-68
2022/03/31 04:13:24;;;;;;;;;9.00;9.00;;;;;12.06;50.33;97134.78;6278704;27;96838;-68
2022/03/31 04:16:28;;;;;;;;;9.00;8.00;;;;;12.05;50.04;97138.53;6296205;27;96386;-68
2022/03/31 04:19:31;;;;;;;;;9.20;8.80;;;;;12.02;49.93;97147.22;6277760;27;97130;-68
2022/03/31 04:22:37;;;;;;;;;10.00;9.00;;;;;12.01;50.12;97154.50;6281736;27;97483;-68
2022/03/31 04:25:40;;;;;;;;;10.00;9.00;;;;;12.06;50.30;97151.78;6292955;27;96679;-67
2022/03/31 04:28:45;;;;;;;;;10.60;8.60;;;;;12.06;50.23;97154.50;6278470;27;100442;-67
2022/03/31 04:31:48;;;;;;;;;10.40;10.00;;;;;11.95;50.30;97149.38;6297805;27;96544;-67
2022/03/31 04:34:51;;;;;;;;;10.40;9.40;;;;;12.04;50.19;97155.81;6280892;27;100605;-67
2022/03/31 04:37:55;;;;;;;;;9.00;9.00;;;;;12.03;49.89;97160.41;6296417;27;97367;-67
2022/03/31 04:40:58;;;;;;;;;10.00;9.00;;;;;11.83;49.91;97165.03;6281752;27;96684;-69
2022/03/31 04:44:03;;;;;;;;;7.00;7.00;;;;;11.84;49.76;97159.38;6276634;27;97007;-69
2022/03/31 04:47:07;;;;;;;;;6.00;6.00;;;;;11.81;49.74;97168.03;6296212;27;96728;-68
2022/03/31 04:50:10;;;;;;;;;7.00;6.00;;;;;11.78;50.00;97175.84;6277288;27;96734;-69
2022/03/31 04:53:14;;;;;;;;;5.25;4.25;;;;;11.69;50.01;97167.44;6296418;27;96602;-68
2022/03/31 04:56:18;;;;;;;;;5.25;5.25;;;;;11.66;50.05;97168.00;6297512;27;96580;-68
2022/03/31 04:59:23;;;;;;;;;7.75;7.00;;;;;11.53;50.35;97184.72;6276236;27;96788;-69
2022/03/31 05:02:26;;;;;;;;;7.00;6.00;;;;;11.48;50.32;97187.41;6272821;27;98306;-69
2022/03/31 05:05:29;;;;;;;;;4.00;4.00;;;;;11.52;50.41;97188.50;6264283;27;97099;-69
2022/03/31 05:08:33;;;;;;;;;6.00;6.00;;;;;11.45;50.27;97185.25;6262812;27;97099;-68
2022/03/31 05:11:36;;;;;;;;;5.00;5.00;;;;;11.48;50.53;97190.13;6286868;27;96669;-69
2022/03/31 05:14:41;;;;;;;;;5.80;5.80;;;;;11.39;50.59;97194.41;6281749;27;96713;-67
2022/03/31 05:17:44;;;;;;;;;7.00;7.00;;;;;11.22;50.62;97186.56;6290927;27;97466;-67
2022/03/31 05:20:48;;;;;;;;;6.00;6.00;;;;;11.05;51.03;97194.06;6266439;27;96849;-67
2022/03/31 05:23:51;;;;;;;;;7.60;7.60;;;;;10.90;51.32;97189.44;6271541;27;96888;-67
2022/03/31 05:26:55;;;;;;;;;7.00;7.00;;;;;10.84;51.45;97191.31;6289123;27;96543;-67
2022/03/31 05:29:59;;;;;;;;;10.00;9.20;;;;;10.95;51.68;97196.72;6259524;27;97637;-68
2022/03/31 05:33:03;;;;;;;;;7.60;7.60;;;;;10.92;51.66;97208.88;6288665;27;96885;-69
2022/03/31 05:36:07;;;;;;;;;7.80;7.00;;;;;11.01;51.52;97209.97;6292181;27;96984;-68
2022/03/31 05:39:10;;;;;;;;;11.00;9.40;;;;;11.06;51.59;97215.38;6272812;27;97153;-68
2022/03/31 05:42:14;;;;;;;;;10.50;10.00;;;;;11.14;51.50;97220.25;6292315;27;96295;-68
2022/03/31 05:45:19;;;;;;;;;8.80;8.80;;;;;11.12;51.46;97217.03;6250381;27;97057;-68
2022/03/31 05:48:22;;;;;;;;;11.80;11.00;;;;;11.01;51.52;97207.28;6263886;27;96371;-68
2022/03/31 05:51:25;;;;;;;;;9.80;9.20;;;;;11.08;51.60;97221.34;6245755;27;97132;-68
2022/03/31 05:54:30;;;;;;;;;10.40;9.40;;;;;11.04;51.54;97227.53;6273136;27;98490;-68
2022/03/31 05:57:34;;;;;;;;;10.00;9.00;;;;;10.81;51.89;97218.78;6289376;27;97967;-68
2022/03/31 06:00:39;;;;;;;;;10.00;10.00;;;;;10.85;52.12;97202.91;6270894;27;96585;-68
2022/03/31 06:03:43;;;;;;;;;12.60;11.00;;;;;10.95;51.97;97202.13;6270978;27;98413;-68
2022/03/31 06:06:46;;;;;;;;;9.00;9.00;;;;;11.07;52.07;97208.09;6290084;27;97420;-68
2022/03/31 06:09:49;;;;;;;;;11.00;9.60;;;;;10.99;51.82;97204.03;6291110;27;97485;-67
2022/03/31 06:12:54;;;;;;;;;11.00;9.00;;;;;10.90;51.88;97199.44;6305736;27;96302;-68
2022/03/31 06:15:58;;;;;;;;;11.20;9.80;;;;;10.79;52.32;97201.28;6295885;27;96591;-68
2022/03/31 06:19:01;;;;;;;;;10.00;10.00;;;;;10.91;52.08;97198.34;6292288;27;97572;-68
2022/03/31 06:22:05;;;;;;;;;11.60;10.20;;;;;10.89;52.30;97197.81;6281264;27;97409;-69
2022/03/31 06:25:10;;;;;;;;;11.00;9.67;;;;;10.90;52.50;97202.91;6271916;27;96735;-68
2022/03/31 06:28:15;;;;;;;;;10.00;10.00;;;;;10.98;52.28;97204.31;6271070;27;96871;-69
2022/03/31 06:31:23;;;;;;;;;7.40;7.00;;;;;11.06;52.27;97217.25;6256088;27;98548;-69
2022/03/31 06:34:26;;;;;;;;;8.60;8.00;;;;;11.00;51.66;97194.84;6271464;27;96753;-68
2022/03/31 06:37:29;;;;;;;;;8.00;7.40;;;;;11.13;51.58;97215.94;6289937;27;96537;-69
2022/03/31 06:40:37;;;;;;;;;7.00;7.00;;;;;11.26;51.62;97222.72;6290418;27;96417;-69
2022/03/31 06:43:42;;;;;;;;;7.00;7.00;;;;;11.23;51.45;97224.06;6267914;27;99413;-68
2022/03/31 06:46:47;;;;;;;;;7.00;6.00;;;;;11.31;51.43;97214.63;6295292;27;96238;-67
2022/03/31 06:49:50;;;;;;;;;9.00;8.00;;;;;11.44;51.13;97224.91;6288490;27;97396;-67
2022/03/31 06:52:56;;;;;;;;;8.50;6.50;;;;;11.47;50.91;97224.38;6287189;27;97476;-68
2022/03/31 06:55:59;;;;;;;;;7.50;7.00;;;;;11.44;50.48;97235.69;6246692;27;96762;-67
2022/03/31 06:59:03;;;;;;;;;8.00;6.00;;;;;11.48;50.63;97230.59;6287541;27;96992;-67
2022/03/31 07:02:09;;;;;;;;;7.00;6.00;;;;;11.44;50.42;97226.78;6288699;27;96379;-69
2022/03/31 07:05:13;;;;;;;;;7.00;6.00;;;;;11.54;50.45;97232.19;6288585;27;96436;-68
2022/03/31 07:08:18;;;;;;;;;7.60;7.00;;;;;11.56;50.37;97232.75;6288834;27;97174;-67
2022/03/31 07:11:21;;;;;;;;;8.00;8.00;;;;;11.54;50.44;97234.91;6263954;27;97158;-67
2022/03/31 07:14:25;;;;;;;;;7.00;7.00;;;;;11.51;50.40;97241.66;6245172;27;99523;-68
2022/03/31 07:17:29;;;;;;;;;9.00;9.00;;;;;11.59;50.36;97243.00;6263917;27;96652;-68
2022/03/31 07:20:34;;;;;;;;;10.00;10.00;;;;;11.64;50.56;97248.41;6263798;27;97438;-68
2022/03/31 07:23:37;;;;;;;;;9.00;8.00;;;;;11.56;50.22;97230.06;6283596;27;96987;-68
2022/03/31 07:26:40;;;;;;;;;9.00;8.60;;;;;11.67;50.11;97254.09;6264385;27;98374;-68
2022/03/31 07:29:44;;;;;;;;;9.00;8.00;;;;;11.65;50.14;97266.22;6267362;27;97549;-69
2022/03/31 07:32:50;;;;;;;;;9.00;9.00;;;;;11.73;49.98;97273.81;6268821;27;98631;-68
2022/03/31 07:35:53;;;;;;;;;10.20;10.20;;;;;11.79;49.79;97261.97;6258207;27;97921;-68
2022/03/31 07:38:59;;;;;;;;;11.00;10.00;;;;;11.76;49.79;97264.41;6269240;27;96800;-68
2022/03/31 07:42:04;;;;;;;;;10.50;9.50;;;;;11.43;49.98;97260.25;6289241;27;97369;-68
2022/03/31 07:45:08;;;;;;;;;10.60;9.00;;;;;11.40;50.20;97271.56;6269754;27;97975;-70
2022/03/31 07:48:15;;;;;;;;;11.00;11.00;;;;;11.42;50.45;97262.16;6268181;27;98838;-68
2022/03/31 07:51:18;;;;;;;;;9.00;9.00;;;;;11.38;50.48;97271.84;6289249;27;97058;-68
2022/03/31 07:54:22;;;;;;;;;9.20;8.20;;;;;11.39;50.52;97267.25;6275865;27;96629;-68
2022/03/31 07:57:25;;;;;;;;;9.50;9.00;;;;;11.40;50.73;97275.09;6284979;27;96436;-69
2022/03/31 08:00:29;;;;;;;;;8.00;8.00;;;;;11.13;50.84;97269.06;6295463;27;97300;-68
2022/03/31 08:03:34;;;;;;;;;8.00;6.00;;;;;11.01;50.82;97276.56;6296215;27;97857;-68
2022/03/31 08:06:37;;;;;;;;;6.60;6.00;;;;;10.86;51.48;97288.09;6279225;27;98342;-68
2022/03/31 08:09:41;;;;;;;;;8.50;8.50;;;;;10.81;51.73;97278.09;6313438;27;97584;-68
2022/03/31 08:12:45;;;;;;;;;8.00;7.40;;;;;10.86;51.66;97286.22;6280102;27;96358;-68
2022/03/31 08:15:49;;;;;;;;;7.40;7.00;;;;;11.01;51.96;97287.34;6245211;27;97099;-68
2022/03/31 08:18:54;;;;;;;;;7.00;7.00;;;;;11.04;51.60;97295.75;6253434;27;96741;-69
2022/03/31 08:21:58;;;;;;;;;8.00;7.00;;;;;11.03;51.46;97291.41;6269733;27;97135;-68
2022/03/31 08:25:01;;;;;;;;;8.00;8.00;;;;;11.01;51.73;97293.56;6279533;27;96780;-68
2022/03/31 08:28:05;;;;;;;;;8.60;8.00;;;;;11.11;51.49;97285.50;6244383;27;98256;-69
2022/03/31 08:31:08;;;;;;;;;7.00;6.20;;;;;10.90;51.96;97294.56;6245577;27;96840;-68
2022/03/31 08:34:13;;;;;;;;;11.00;10.00;;;;;10.82;51.75;97295.91;6263198;27;98088;-68
2022/03/31 08:37:17;;;;;;;;;8.00;7.00;;;;;10.93;52.27;97293.25;6247376;27;96707;-68
2022/03/31 08:40:20;;;;;;;;;9.00;9.00;;;;;10.89;52.08;97287.59;6270336;27;96911;-69
2022/03/31 08:43:27;;;;;;;;;7.60;7.60;;;;;10.89;52.18;97295.66;6272732;27;99562;-68
2022/03/31 08:46:33;;;;;;;;;11.00;10.00;;;;;10.72;52.53;97300.41;6276087;27;97609;-68
2022/03/31 08:49:43;;;;;;;;;11.00;10.00;;;;;10.49;53.11;97293.56;6291639;27;96652;-68
2022/03/31 08:52:46;;;;;;;;;10.00;9.00;;;;;10.52;53.13;97294.91;6295501;27;96426;-68
2022/03/31 08:55:50;;;;;;;;;10.50;9.00;;;;;10.77;53.14;97295.88;6273585;27;99808;-69
2022/03/31 08:58:53;;;;;;;;;10.00;9.75;;;;;10.89;52.58;97276.81;6293311;27;98661;-68
2022/03/31 09:01:56;;;;;;;;;11.40;11.00;;;;;11.08;52.09;97294.13;6309242;27;96863;-68
2022/03/31 09:05:03;;;;;;;;;12.00;11.00;;;;;10.98;52.01;97283.31;6300588;27;98105;-69
2022/03/31 09:08:09;;;;;;;;;10.40;10.00;;;;;10.13;52.53;97219.75;6299208;27;97016;-68
2022/03/31 09:11:13;;;;;;;;;11.00;10.00;;;;;11.10;53.97;97286.56;6275379;27;97823;-69
2022/03/31 09:14:16;;;;;;;;;12.00;11.00;;;;;11.25;53.06;97281.25;6290779;27;97561;-69
2022/03/31 09:17:20;;;;;;;;;10.40;10.00;;;;;11.10;52.31;97267.69;6292015;27;97444;-68
2022/03/31 09:20:36;;;;;;;;;9.60;9.60;;;;;11.30;52.38;97291.25;6277898;27;96744;-68
2022/03/31 09:23:42;;;;;;;;;10.25;9.75;;;;;11.06;51.91;97280.09;6265989;27;96625;-68
2022/03/31 09:26:47;;;;;;;;;9.60;9.00;;;;;11.17;52.49;97297.13;6286864;27;96375;-69
2022/03/31 09:29:50;;;;;;;;;14.00;12.75;;;;;11.19;52.13;97295.78;6255751;27;99453;-69
2022/03/31 09:32:54;;;;;;;;;11.00;10.60;;;;;10.70;51.82;97243.28;6289054;27;96982;-68
2022/03/31 09:36:05;;;;;;;;;10.00;10.00;;;;;10.76;52.29;97259.19;6290866;27;96766;-68
2022/03/31 09:39:13;;;;;;;;;10.00;9.60;;;;;11.07;51.94;97297.09;6291348;27;96954;-68
2022/03/31 09:42:19;;;;;;;;;11.60;10.00;;;;;11.07;51.96;97297.91;6289250;27;97383;-68
2022/03/31 09:45:23;;;;;;;;;10.40;10.00;;;;;11.09;52.15;97295.75;6290611;27;97551;-69
2022/03/31 09:48:26;;;;;;;;;11.00;10.00;;;;;10.82;52.03;97268.94;6291558;27;96399;-68
2022/03/31 09:51:31;;;;;;;;;10.00;9.00;;;;;10.66;52.75;97283.41;6295992;27;98286;-68
2022/03/31 09:54:35;;;;;;;;;13.00;10.75;;;;;10.78;53.20;97297.50;6276804;27;97400;-68
2022/03/31 09:57:39;;;;;;;;;13.00;13.00;;;;;10.76;52.90;97296.13;6299528;27;98009;-68
2022/03/31 10:00:43;;;;;;;;;12.00;10.80;;;;;10.73;53.29;97294.78;6279985;27;97089;-68
2022/03/31 10:03:48;;;;;;;;;12.00;11.00;;;;;10.79;53.31;97282.97;6302902;27;98180;-68
2022/03/31 10:06:54;;;;;;;;;12.40;11.40;;;;;10.74;53.18;97291.00;6274450;27;97266;-68
2022/03/31 10:09:57;;;;;;;;;10.00;10.00;;;;;10.90;52.57;97278.41;6289570;27;96701;-68
2022/03/31 10:13:11;;;;;;;;;11.00;10.00;;;;;10.87;52.27;97278.94;6269322;27;97361;-68
2022/03/31 10:16:18;;;;;;;;;11.25;10.25;;;;;10.72;52.92;97284.25;6273451;27;96840;-68
2022/03/31 10:19:29;;;;;;;;;12.00;10.00;;;;;10.71;53.17;97274.53;6271218;27;98697;-68
2022/03/31 10:25:55;;;;;;;;;11.00;11.00;;;;;10.76;52.55;97278.06;6273144;27;98607;-68
2022/03/31 10:29:02;;;;;;;;;14.00;12.00;;;;;10.84;52.57;97268.69;6254710;27;96478;-68
2022/03/31 10:32:19;;;;;;;;;12.40;12.00;;;;;10.74;52.68;97261.38;6290678;27;97473;-68
2022/03/31 10:35:25;;;;;;;;;11.00;11.00;;;;;10.64;52.79;97265.88;6290762;27;99508;-68
2022/03/31 10:38:33;;;;;;;;;14.00;12.00;;;;;10.40;53.19;97273.56;6258538;27;97365;-68
2022/03/31 10:41:39;;;;;;;;;14.40;13.60;;;;;10.51;53.30;97253.66;6258957;27;97199;-67
2022/03/31 10:44:42;;;;;;;;;12.00;12.00;;;;;10.65;53.45;97264.81;6290099;27;96745;-68
2022/03/31 10:47:45;;;;;;;;;13.00;13.00;;;;;10.78;53.16;97257.06;6273268;27;98606;-67
2022/03/31 10:51:01;;;;;;;;;15.20;13.00;;;;;10.90;52.73;97259.53;6288756;27;96407;-68
2022/03/31 10:54:10;;;;;;;;;15.00;14.00;;;;;10.88;52.71;97260.88;6292207;27;96687;-68
2022/03/31 10:57:17;;;;;;;;;12.00;11.00;;;;;10.77;52.72;97265.41;6290363;27;97482;-69
2022/03/31 11:00:20;;;;;;;;;13.00;12.00;;;;;10.30;52.83;97184.63;6270705;27;97425;-68
2022/03/31 11:03:24;;;;;;;;;12.80;12.00;;;;;10.54;53.08;97253.16;6277734;27;98489;-68
2022/03/31 11:06:29;;;;;;;;;13.50;13.00;;;;;10.74;53.09;97261.38;6278156;27;97460;-68
2022/03/31 11:09:33;;;;;;;;;15.00;14.00;;;;;10.58;53.36;97259.66;6245759;27;99614;-68
2022/03/31 11:12:37;;;;;;;;;15.60;14.60;;;;;10.64;53.50;97253.22;6272941;27;96722;-68
2022/03/31 11:15:41;;;;;;;;;14.20;12.80;;;;;10.70;53.75;97256.75;6290369;27;97228;-68
2022/03/31 11:18:52;;;;;;;;;16.00;13.00;;;;;10.59;53.96;97258.59;6270982;27;97385;-68
2022/03/31 11:21:55;;;;;;;;;10.00;10.00;;;;;10.65;53.48;97257.53;6308943;27;96754;-69
2022/03/31 11:25:10;;;;;;;;;14.00;13.00;;;;;10.79;53.41;97258.69;6272630;27;99130;-68
2022/03/31 11:28:15;;;;;;;;;12.00;11.00;;;;;10.80;53.14;97224.44;6298350;27;96447;-68
2022/03/31 11:31:20;;;;;;;;;11.00;11.00;;;;;10.97;53.07;97243.13;6276049;27;99607;-68
2022/03/31 11:34:26;;;;;;;;;10.00;9.40;;;;;10.92;52.70;97243.91;6278468;27;97548;-68
2022/03/31 11:37:30;;;;;;;;;12.00;10.00;;;;;10.78;52.98;97240.09;6286380;27;96894;-69
2022/03/31 11:40:36;;;;;;;;;9.00;9.00;;;;;10.72;53.38;97241.13;6284839;27;97856;-68
2022/03/31 11:43:40;;;;;;;;;12.00;10.00;;;;;10.74;53.40;97233.59;6288903;27;97505;-68
2022/03/31 11:46:47;;;;;;;;;10.00;9.00;;;;;10.82;53.22;97233.91;6287844;27;97252;-68
2022/03/31 11:49:59;;;;;;;;;8.40;8.40;;;;;10.55;53.49;97218.97;6246806;27;96874;-69
2022/03/31 11:53:03;;;;;;;;;10.00;9.60;;;;;10.82;53.30;97235.78;6287865;27;97908;-70
2022/03/31 11:56:15;;;;;;;;;10.33;9.00;;;;;10.89;53.13;97233.66;6285581;27;97205;-68
2022/03/31 11:59:22;;;;;;;;;13.00;12.00;;;;;10.90;52.85;97245.25;6285390;27;97464;-69
2022/03/31 12:02:26;;;;;;;;;14.80;14.00;;;;;10.72;53.08;97225.75;6270120;27;98672;-68
2022/03/31 12:05:30;;;;;;;;;18.00;15.00;;;;;10.87;52.97;97238.50;6268354;27;96571;-68
2022/03/31 12:08:35;;;;;;;;;17.00;15.80;;;;;10.82;52.89;97241.16;6279101;27;97445;-69
2022/03/31 12:11:40;;;;;;;;;15.60;14.60;;;;;10.80;52.81;97236.03;6270789;27;97449;-69
2022/03/31 12:14:54;;;;;;;;;14.00;13.00;;;;;10.74;53.11;97231.72;6257534;27;97798;-69
2022/03/31 12:18:04;;;;;;;;;11.00;10.00;;;;;10.69;53.46;97231.69;6283242;27;96645;-68
2022/03/31 12:21:09;;;;;;;;;11.20;10.00;;;;;10.73;53.18;97223.88;6266191;27;97692;-68
2022/03/31 12:24:12;;;;;;;;;11.40;10.60;;;;;10.51;53.07;97183.63;6272745;27;97452;-69
2022/03/31 12:27:18;;;;;;;;;12.40;11.00;;;;;10.75;53.09;97211.75;6273339;27;97438;-69
2022/03/31 12:30:22;;;;;;;;;12.00;11.00;;;;;10.80;53.01;97210.97;6291423;27;97995;-69
2022/03/31 12:33:27;;;;;;;;;11.40;10.00;;;;;10.87;52.99;97206.16;6289952;27;97318;-68
2022/03/31 12:36:32;;;;;;;;;11.00;11.00;;;;;10.81;53.02;97199.94;6260369;27;97960;-68
2022/03/31 12:39:41;;;;;;;;;10.00;10.00;;;;;10.43;52.83;97157.19;6267407;27;96497;-69
2022/03/31 12:42:53;;;;;;;;;13.00;12.00;;;;;10.75;53.21;97194.81;6293255;27;96596;-69
2022/03/31 12:45:56;;;;;;;;;13.00;11.60;;;;;10.81;53.18;97199.13;6291094;27;97422;-68
2022/03/31 12:49:03;;;;;;;;;11.00;10.80;;;;;10.89;52.98;97195.94;6274114;27;96650;-69
2022/03/31 12:52:13;;;;;;;;;14.00;14.00;;;;;10.96;52.57;97206.44;6273403;27;97558;-69
2022/03/31 12:55:16;;;;;;;;;15.60;14.40;;;;;10.89;52.95;97195.94;6254305;27;99592;-68
2022/03/31 12:58:35;;;;;;;;;12.00;10.50;;;;;10.88;52.55;97194.31;6264512;27;97454;-68
2022/03/31 13:01:39;;;;;;;;;14.00;13.00;;;;;10.74;52.96;97191.28;6273773;27;96725;-70
2022/03/31 13:04:45;;;;;;;;;12.00;11.00;;;;;10.80;53.39;97197.47;6294034;27;96702;-68
2022/03/31 13:07:49;;;;;;;;;13.00;12.00;;;;;10.89;52.90;97198.63;6281862;27;98368;-68
2022/03/31 13:10:52;;;;;;;;;13.00;12.00;;;;;10.97;52.90;97200.78;6282606;27;97484;-68
2022/03/31 13:13:56;;;;;;;;;12.00;11.00;;;;;10.81;52.78;97207.19;6287597;27;96513;-69
2022/03/31 13:17:00;;;;;;;;;12.00;11.00;;;;;10.74;52.87;97195.88;6253522;27;97053;-69
2022/03/31 13:20:04;;;;;;;;;11.40;10.40;;;;;10.74;52.84;97191.28;6280844;27;97885;-69
2022/03/31 13:23:08;;;;;;;;;12.00;11.00;;;;;10.71;53.13;97199.06;6278267;27;98941;-69
2022/03/31 13:26:11;;;;;;;;;13.00;11.00;;;;;10.44;53.50;97180.38;6291147;27;97447;-69
2022/03/31 13:29:16;;;;;;;;;11.40;10.20;;;;;10.50;53.57;97192.81;6290779;27;96909;-69
2022/03/31 13:32:21;;;;;;;;;11.00;10.00;;;;;10.43;53.40;97192.22;6281109;27;96641;-69
2022/03/31 13:35:25;;;;;;;;;10.00;8.00;;;;;10.41;53.58;97187.06;6293624;27;96491;-69
2022/03/31 13:38:31;;;;;;;;;10.00;9.80;;;;;10.37;53.86;97191.38;6289660;27;96783;-69
2022/03/31 13:41:34;;;;;;;;;11.80;11.00;;;;;10.16;53.94;97181.59;6258269;27;98956;-69
2022/03/31 13:44:40;;;;;;;;;11.00;10.00;;;;;10.39;54.02;97177.66;6271006;27;99472;-70
2022/03/31 13:47:45;;;;;;;;;9.00;9.00;;;;;10.21;54.56;97186.19;6271803;27;96945;-69
2022/03/31 13:50:49;;;;;;;;;12.40;12.00;;;;;10.35;54.21;97171.19;6288915;27;97202;-69
2022/03/31 13:53:53;;;;;;;;;12.50;12.00;;;;;10.41;54.08;97170.91;6254256;27;98467;-68
2022/03/31 13:56:58;;;;;;;;;13.00;11.00;;;;;10.35;53.91;97171.19;6288103;27;96729;-68
2022/03/31 14:03:27;;;;;;;;;10.00;9.00;;;;;10.15;54.46;97171.03;6286688;27;97451;-70
2022/03/31 14:06:31;;;;;;;;;11.20;11.00;;;;;10.16;54.58;97160.03;6288833;27;97511;-68
2022/03/31 14:09:35;;;;;;;;;13.00;11.00;;;;;9.92;54.89;97164.94;6252897;27;97916;-68
2022/03/31 14:12:40;;;;;;;;;9.60;9.60;;;;;9.84;54.70;97157.38;6274866;27;96756;-69
2022/03/31 14:15:44;;;;;;;;;10.00;9.00;;;;;9.79;54.91;97153.81;6290188;27;96440;-69
2022/03/31 14:18:48;;;;;;;;;14.00;12.00;;;;;10.05;54.97;97154.81;6264618;27;99569;-69
2022/03/31 14:21:53;;;;;;;;;12.00;11.00;;;;;10.04;54.73;97145.91;6293158;27;96622;-69
2022/03/31 14:24:56;;;;;;;;;12.00;11.00;;;;;10.07;54.79;97150.00;6289754;27;96433;-69